Time;durP1;ratioP1;P1;durP2;ratioP2;P2;SDS_P1;SDS_P2;PMS_P1;PMS_P2;Temp;Humidity;BMP_temperature;BMP_pressure;BME280_temperature;BME280_humidity;BME280_pressure;Samples;Min_cycle;Max_cycle;Signal;HPM_P1;HPM_P2
2024/02/19 00:01:32;;;;;;;;;;;;;;;17.81;64.90;102187.69;7387986;19;1841;-42
2024/02/19 00:04:03;;;;;;;;;;;;;;;17.78;64.92;102187.88;7388347;19;1232;-41
2024/02/19 00:06:31;;;;;;;;;;;;;;;17.69;65.07;102183.94;7388111;19;1023;-42
2024/02/19 00:09:00;;;;;;;;;;;;;;;17.86;64.97;102185.63;7387984;19;1389;-45
2024/02/19 00:11:31;;;;;;;;;;;;;;;18.25;64.12;102181.44;7385709;19;1849;-41
2024/02/19 00:13:59;;;;;;;;;;;;;;;18.07;64.59;102182.59;7386773;19;1721;-41
2024/02/19 00:16:27;;;;;;;;;;;;;;;17.98;64.68;102172.44;7386001;19;1573;-44
2024/02/19 00:18:56;;;;;;;;;;;;;;;17.89;64.72;102182.78;7383268;19;1734;-41
2024/02/19 00:21:24;;;;;;;;;;;;;;;17.85;64.79;102170.53;7383355;19;1572;-41
2024/02/19 00:23:52;;;;;;;;;;;;;;;17.80;64.91;102182.44;7381390;19;1401;-41
2024/02/19 00:26:21;;;;;;;;;;;;;;;17.84;64.79;102187.53;7383211;19;1244;-41
2024/02/19 00:28:52;;;;;;;;;;;;;;;17.76;64.78;102195.13;7387245;19;1315;-41
2024/02/19 00:31:21;;;;;;;;;;;;;;;17.68;65.02;102174.19;7389067;19;1858;-40
2024/02/19 00:33:50;;;;;;;;;;;;;;;17.79;65.21;102194.97;7392105;19;1498;-45
2024/02/19 00:36:19;;;;;;;;;;;;;;;18.14;64.30;102193.78;7392664;19;1589;-40
2024/02/19 00:38:48;;;;;;;;;;;;;;;18.13;64.11;102194.75;7391973;19;1905;-40
2024/02/19 00:41:17;;;;;;;;;;;;;;;17.99;64.37;102185.75;7392428;19;1408;-41
2024/02/19 00:43:45;;;;;;;;;;;;;;;17.91;64.66;102189.84;7391863;19;1488;-41
2024/02/19 00:46:16;;;;;;;;;;;;;;;17.85;64.58;102202.66;7391680;19;1802;-41
2024/02/19 00:48:44;;;;;;;;;;;;;;;17.87;64.64;102195.38;7390674;19;1484;-40
2024/02/19 00:51:13;;;;;;;;;;;;;;;17.82;64.74;102183.19;7391168;19;1857;-41
2024/02/19 00:53:41;;;;;;;;;;;;;;;17.74;64.94;102201.53;7392584;19;1759;-41
2024/02/19 00:56:09;;;;;;;;;;;;;;;17.64;65.07;102175.31;7393400;19;1719;-41
2024/02/19 00:58:38;;;;;;;;;;;;;;;17.58;65.42;102177.53;7392552;19;1417;-41
2024/02/19 01:01:06;;;;;;;;;;;;;;;17.87;64.86;102171.28;7394894;19;966;-41
2024/02/19 01:03:38;;;;;;;;;;;;;;;18.23;63.84;102185.19;7393711;19;1850;-41
2024/02/19 01:06:06;;;;;;;;;;;;;;;18.06;64.14;102165.69;7393295;19;1608;-41
2024/02/19 01:08:35;;;;;;;;;;;;;;;17.96;64.23;102163.66;7392512;19;1554;-41
2024/02/19 01:11:03;;;;;;;;;;;;;;;17.87;64.56;102160.59;7390715;19;1881;-40
2024/02/19 01:13:31;;;;;;;;;;;;;;;17.78;64.61;102139.72;7391593;19;1125;-41
2024/02/19 01:16:00;;;;;;;;;;;;;;;17.76;64.75;102152.31;7393953;19;1022;-41
2024/02/19 01:18:28;;;;;;;;;;;;;;;17.74;64.53;102138.19;7392006;19;1585;-41
2024/02/19 01:20:59;;;;;;;;;;;;;;;17.66;64.97;102132.44;7390600;19;1755;-40
2024/02/19 01:23:28;;;;;;;;;;;;;;;17.73;64.74;102135.63;7390257;19;1694;-41
2024/02/19 01:25:56;;;;;;;;;;;;;;;18.05;64.16;102130.97;7390176;19;1386;-41
2024/02/19 01:28:24;;;;;;;;;;;;;;;18.12;63.87;102140.31;7392045;19;1198;-41
2024/02/19 01:30:53;;;;;;;;;;;;;;;17.97;64.14;102127.94;7389584;19;1856;-41
2024/02/19 01:33:22;;;;;;;;;;;;;;;17.86;64.43;102140.13;7389423;19;1882;-41
2024/02/19 01:35:50;;;;;;;;;;;;;;;17.85;64.58;102130.41;7390656;19;1354;-41
2024/02/19 01:38:21;;;;;;;;;;;;;;;17.76;64.70;102130.06;7389116;19;1259;-41
2024/02/19 01:40:50;;;;;;;;;;;;;;;17.69;64.84;102134.94;7386435;19;1411;-41
2024/02/19 01:43:18;;;;;;;;;;;;;;;17.69;64.92;102135.78;7388892;19;1371;-40
2024/02/19 01:45:46;;;;;;;;;;;;;;;17.57;65.43;102127.66;7389671;19;1953;-41
2024/02/19 01:48:15;;;;;;;;;;;;;;;17.79;64.90;102129.88;7390070;19;1506;-41
2024/02/19 01:50:45;;;;;;;;;;;;;;;18.07;64.11;102110.31;7390023;19;1852;-40
2024/02/19 01:53:13;;;;;;;;;;;;;;;17.97;64.25;102114.53;7391914;19;1180;-40
2024/02/19 01:55:44;;;;;;;;;;;;;;;17.88;64.41;102135.53;7390989;19;1102;-41
2024/02/19 01:58:13;;;;;;;;;;;;;;;17.79;64.82;102128.06;7389295;19;1501;-41
2024/02/19 02:00:42;;;;;;;;;;;;;;;17.78;64.72;102120.97;7390191;19;1847;-39
2024/02/19 02:03:12;;;;;;;;;;;;;;;17.69;64.91;102124.25;7390640;19;1830;-41
2024/02/19 02:05:40;;;;;;;;;;;;;;;17.66;64.80;102116.38;7391282;19;1256;-41
2024/02/19 02:08:09;;;;;;;;;;;;;;;17.63;64.93;102097.88;7389531;19;1315;-41
2024/02/19 02:10:37;;;;;;;;;;;;;;;17.95;64.24;102103.06;7388525;19;1855;-40
2024/02/19 02:13:08;;;;;;;;;;;;;;;18.60;62.33;102114.06;7388984;19;1319;-41
2024/02/19 02:15:37;;;;;;;;;;;;;;;19.16;61.16;102118.44;7392034;19;1123;-41
2024/02/19 02:18:05;;;;;;;;;;;;;;;19.48;60.19;102117.13;7391483;19;1009;-41
2024/02/19 02:20:34;;;;;;;;;;;;;;;19.62;59.93;102107.28;7388901;19;1485;-41
2024/02/19 02:23:02;;;;;;;;;;;;;;;19.37;60.58;102108.94;7387340;19;1862;-40
2024/02/19 02:25:30;;;;;;;;;;;;;;;19.25;61.13;102118.69;7390004;19;1477;-41
2024/02/19 02:28:01;;;;;;;;;;;;;;;19.17;61.12;102102.25;7389444;19;1152;-40
2024/02/19 02:30:29;;;;;;;;;;;;;;;19.04;61.35;102101.41;7387746;19;1831;-41
2024/02/19 02:32:58;;;;;;;;;;;;;;;19.04;61.76;102094.19;7388958;19;1579;-41
2024/02/19 02:35:26;;;;;;;;;;;;;;;19.04;61.66;102090.66;7388089;19;1712;-41
2024/02/19 02:37:55;;;;;;;;;;;;;;;19.03;61.60;102097.84;7388388;19;1219;-41
2024/02/19 02:40:23;;;;;;;;;;;;;;;19.11;61.55;102091.94;7388689;19;1472;-40
2024/02/19 02:42:51;;;;;;;;;;;;;;;19.16;61.39;102086.28;7388622;19;1572;-41
2024/02/19 02:45:22;;;;;;;;;;;;;;;19.17;61.29;102086.19;7389733;19;1546;-40
2024/02/19 02:47:50;;;;;;;;;;;;;;;19.13;61.18;102084.66;7390317;19;1015;-40
2024/02/19 02:50:19;;;;;;;;;;;;;;;19.13;61.39;102067.72;7388626;19;1838;-40
2024/02/19 02:52:47;;;;;;;;;;;;;;;19.21;61.11;102078.78;7385392;19;1596;-40
2024/02/19 02:55:15;;;;;;;;;;;;;;;19.18;61.27;102089.72;7388848;19;1512;-40
2024/02/19 02:57:44;;;;;;;;;;;;;;;19.22;61.38;102096.59;7388874;19;1592;-40
2024/02/19 03:00:12;;;;;;;;;;;;;;;19.19;61.51;102091.44;7388361;19;1657;-40
2024/02/19 03:02:43;;;;;;;;;;;;;;;19.22;61.24;102084.06;7388595;19;1541;-40
2024/02/19 03:05:12;;;;;;;;;;;;;;;19.21;61.33;102073.41;7387724;19;1386;-40
2024/02/19 03:07:40;;;;;;;;;;;;;;;19.26;61.41;102079.34;7387132;19;1142;-40
2024/02/19 03:10:11;;;;;;;;;;;;;;;19.21;61.34;102076.94;7386409;19;1450;-40
2024/02/19 03:12:39;;;;;;;;;;;;;;;19.30;61.37;102083.53;7388192;19;1557;-40
2024/02/19 03:15:08;;;;;;;;;;;;;;;19.25;61.31;102085.66;7389616;19;1018;-40
2024/02/19 03:17:38;;;;;;;;;;;;;;;19.25;61.41;102080.28;7389258;19;1776;-41
2024/02/19 03:20:13;;;;;;;;;;;;;;;19.28;61.35;102085.47;7387915;19;1625;-40
2024/02/19 03:22:41;;;;;;;;;;;;;;;19.28;61.33;102113.13;7385960;19;1612;-41
2024/02/19 03:25:10;;;;;;;;;;;;;;;19.30;61.31;102072.81;7387579;19;1549;-40
2024/02/19 03:27:38;;;;;;;;;;;;;;;19.27;61.31;102071.16;7386622;19;1743;-41
2024/02/19 03:30:07;;;;;;;;;;;;;;;19.31;61.26;102079.88;7388037;19;1262;-40
2024/02/19 03:32:36;;;;;;;;;;;;;;;19.33;61.30;102080.63;7386018;19;1842;-39
2024/02/19 03:35:05;;;;;;;;;;;;;;;19.32;61.28;102081.59;7386819;19;1219;-40
2024/02/19 03:37:36;;;;;;;;;;;;;;;19.31;61.17;102090.59;7385870;19;1422;-39
2024/02/19 03:40:06;;;;;;;;;;;;;;;19.35;61.26;102081.38;7387618;19;1553;-41
2024/02/19 03:42:34;;;;;;;;;;;;;;;19.33;61.16;102088.66;7387442;19;1219;-41
2024/02/19 03:45:03;;;;;;;;;;;;;;;19.37;61.03;102098.22;7388425;19;1034;-41
2024/02/19 03:47:31;;;;;;;;;;;;;;;19.45;61.07;102084.28;7387167;19;1917;-41
2024/02/19 03:50:00;;;;;;;;;;;;;;;19.44;61.12;102075.38;7384644;19;1473;-40
2024/02/19 03:52:28;;;;;;;;;;;;;;;19.45;61.01;102086.97;7385061;19;1882;-41
2024/02/19 03:54:59;;;;;;;;;;;;;;;19.44;61.20;102086.09;7386842;19;1342;-41
2024/02/19 03:57:28;;;;;;;;;;;;;;;19.47;60.83;102080.50;7386843;19;1315;-41
2024/02/19 03:59:56;;;;;;;;;;;;;;;19.37;61.08;102078.59;7387254;19;1192;-41
2024/02/19 04:02:24;;;;;;;;;;;;;;;19.03;61.77;102073.69;7385731;19;1700;-41
2024/02/19 04:04:52;;;;;;;;;;;;;;;18.77;62.58;102080.78;7390459;19;1306;-41
2024/02/19 04:07:21;;;;;;;;;;;;;;;18.59;62.87;102072.16;7395369;19;1363;-41
2024/02/19 04:09:49;;;;;;;;;;;;;;;18.50;63.11;102088.81;7393944;19;1466;-40
2024/02/19 04:12:20;;;;;;;;;;;;;;;18.33;63.54;102078.34;7392200;19;1873;-41
2024/02/19 04:14:48;;;;;;;;;;;;;;;18.51;63.20;102074.47;7393013;19;1929;-41
2024/02/19 04:17:17;;;;;;;;;;;;;;;18.84;62.45;102078.56;7391888;19;1385;-40
2024/02/19 04:19:45;;;;;;;;;;;;;;;18.69;62.02;102035.75;7393582;19;1315;-41
2024/02/19 04:22:14;;;;;;;;;;;;;;;18.69;62.69;102078.59;7393488;19;1023;-40
2024/02/19 04:24:42;;;;;;;;;;;;;;;18.50;63.07;102078.09;7394637;19;1744;-41
2024/02/19 04:27:11;;;;;;;;;;;;;;;18.38;63.39;102073.53;7391599;19;1901;-41
2024/02/19 04:29:41;;;;;;;;;;;;;;;18.60;62.79;102079.25;7388960;19;2511;-41
2024/02/19 04:32:10;;;;;;;;;;;;;;;18.89;62.53;102092.53;7392839;19;1854;-41
2024/02/19 04:34:38;;;;;;;;;;;;;;;18.81;62.34;102097.56;7392877;19;1831;-41
2024/02/19 04:37:07;;;;;;;;;;;;;;;18.59;63.01;102098.09;7392557;19;1696;-41
2024/02/19 04:39:36;;;;;;;;;;;;;;;18.38;63.22;102090.50;7393286;19;1791;-41
2024/02/19 04:42:04;;;;;;;;;;;;;;;18.40;63.24;102093.94;7392651;19;1117;-41
2024/02/19 04:44:33;;;;;;;;;;;;;;;18.66;62.73;102083.31;7392636;19;1890;-41
2024/02/19 04:47:04;;;;;;;;;;;;;;;18.95;62.28;102083.25;7394056;19;1608;-41
2024/02/19 04:49:32;;;;;;;;;;;;;;;18.71;62.64;102085.69;7392301;19;1516;-41
2024/02/19 04:52:00;;;;;;;;;;;;;;;18.51;63.07;102087.88;7390379;19;1841;-41
2024/02/19 04:54:29;;;;;;;;;;;;;;;18.35;63.25;102082.66;7393069;19;1158;-41
2024/02/19 04:56:57;;;;;;;;;;;;;;;18.44;63.36;102086.53;7391638;19;1235;-41
2024/02/19 04:59:26;;;;;;;;;;;;;;;18.65;62.78;102082.44;7391982;19;1486;-41
2024/02/19 05:01:55;;;;;;;;;;;;;;;18.69;62.50;102086.66;7392162;19;1137;-41
2024/02/19 05:04:26;;;;;;;;;;;;;;;18.52;63.01;102086.88;7392504;19;1751;-41
2024/02/19 05:06:54;;;;;;;;;;;;;;;18.37;63.18;102082.56;7390120;19;1371;-41
2024/02/19 05:09:22;;;;;;;;;;;;;;;18.35;63.54;102079.13;7392074;19;1227;-41
2024/02/19 05:11:51;;;;;;;;;;;;;;;18.68;63.13;102090.31;7390735;19;1859;-41
2024/02/19 05:14:20;;;;;;;;;;;;;;;18.88;62.48;102088.16;7390673;19;1592;-41
2024/02/19 05:16:48;;;;;;;;;;;;;;;18.80;62.41;102085.09;7391643;19;1549;-41
2024/02/19 05:19:16;;;;;;;;;;;;;;;18.60;63.08;102081.91;7389525;19;1335;-41
2024/02/19 05:21:48;;;;;;;;;;;;;;;18.27;63.50;102079.59;7387998;19;1309;-41
2024/02/19 05:24:17;;;;;;;;;;;;;;;18.48;63.10;102080.91;7390375;19;1814;-42
2024/02/19 05:26:46;;;;;;;;;;;;;;;18.66;62.60;102069.91;7389689;19;1327;-42
2024/02/19 05:29:14;;;;;;;;;;;;;;;18.95;61.81;102078.72;7389570;19;1299;-41
2024/02/19 05:31:43;;;;;;;;;;;;;;;18.90;61.95;102074.63;7392445;19;1867;-41
2024/02/19 05:34:11;;;;;;;;;;;;;;;18.43;62.11;102077.66;7391590;19;1432;-41
2024/02/19 05:36:39;;;;;;;;;;;;;;;17.62;53.35;102064.03;7391481;19;1724;-41
2024/02/19 05:39:11;;;;;;;;;;;;;;;16.97;59.54;102083.97;7387307;19;1251;-41
2024/02/19 05:41:40;;;;;;;;;;;;;;;17.58;58.22;102079.41;7387778;19;1500;-41
2024/02/19 05:44:09;;;;;;;;;;;;;;;18.19;57.65;102064.03;7387762;19;1428;-41
2024/02/19 05:46:37;;;;;;;;;;;;;;;18.47;57.19;102083.66;7389276;19;1331;-42
2024/02/19 05:49:05;;;;;;;;;;;;;;;18.28;57.93;102083.97;7386672;19;1577;-41
2024/02/19 05:51:34;;;;;;;;;;;;;;;18.16;58.69;102088.31;7384619;19;1862;-41
2024/02/19 05:54:02;;;;;;;;;;;;;;;18.24;58.58;102103.88;7387358;19;1149;-41
2024/02/19 05:56:33;;;;;;;;;;;;;;;18.48;58.26;102093.41;7387186;19;1829;-41
2024/02/19 05:59:01;;;;;;;;;;;;;;;18.72;58.03;102087.41;7385895;19;1184;-41
2024/02/19 06:01:30;;;;;;;;;;;;;;;18.55;58.57;102097.41;7386452;19;1807;-41
2024/02/19 06:03:58;;;;;;;;;;;;;;;18.34;59.10;102093.44;7387643;19;1668;-41
2024/02/19 06:06:27;;;;;;;;;;;;;;;18.24;59.63;102091.38;7388263;19;1007;-41
2024/02/19 06:08:55;;;;;;;;;;;;;;;18.37;59.28;102093.25;7386547;19;1810;-41
2024/02/19 06:11:24;;;;;;;;;;;;;;;18.55;58.81;102092.06;7386575;19;1901;-40
2024/02/19 06:13:55;;;;;;;;;;;;;;;18.91;58.16;102087.94;7387752;19;1539;-41
2024/02/19 06:16:24;;;;;;;;;;;;;;;19.11;57.80;102088.41;7389724;19;1700;-41
2024/02/19 06:18:52;;;;;;;;;;;;;;;19.20;57.62;102080.63;7388900;19;1239;-41
2024/02/19 06:21:21;;;;;;;;;;;;;;;19.23;57.58;102063.44;7389104;19;2016;-41
2024/02/19 06:23:49;;;;;;;;;;;;;;;19.24;57.47;102092.84;7388912;19;1648;-41
2024/02/19 06:26:17;;;;;;;;;;;;;;;19.18;57.70;102068.25;7388303;19;1149;-41
2024/02/19 06:28:45;;;;;;;;;;;;;;;19.22;57.86;102080.53;7389480;19;2459;-41
2024/02/19 06:31:16;;;;;;;;;;;;;;;19.26;57.56;102076.66;7391261;19;1825;-41
2024/02/19 06:33:45;;;;;;;;;;;;;;;19.25;57.70;102091.03;7391044;19;1375;-41
2024/02/19 06:36:13;;;;;;;;;;;;;;;19.28;57.61;102088.13;7389304;19;1469;-41
2024/02/19 06:38:42;;;;;;;;;;;;;;;19.28;57.78;102085.47;7388413;19;1500;-42
2024/02/19 06:41:10;;;;;;;;;;;;;;;19.27;57.76;102081.88;7388383;19;1495;-41
2024/02/19 06:43:38;;;;;;;;;;;;;;;19.35;57.77;102069.78;7387805;19;1731;-41
2024/02/19 06:46:07;;;;;;;;;;;;;;;19.37;57.76;102076.75;7387912;19;1627;-41
2024/02/19 06:48:38;;;;;;;;;;;;;;;19.36;57.85;102076.84;7389416;19;1672;-42
2024/02/19 06:51:06;;;;;;;;;;;;;;;19.38;57.68;102064.22;7389401;19;1213;-41
2024/02/19 06:53:34;;;;;;;;;;;;;;;19.33;57.87;102077.94;7386598;19;1907;-41
2024/02/19 06:56:03;;;;;;;;;;;;;;;18.89;58.85;102071.09;7388542;19;1445;-41
2024/02/19 06:58:31;;;;;;;;;;;;;;;18.72;59.36;102076.69;7389686;19;992;-41
2024/02/19 07:00:59;;;;;;;;;;;;;;;18.51;59.84;102078.97;7387845;19;1921;-41
2024/02/19 07:03:28;;;;;;;;;;;;;;;18.57;59.81;102076.75;7384649;19;1840;-41
2024/02/19 07:05:59;;;;;;;;;;;;;;;18.71;59.47;102080.34;7387859;19;1759;-41
2024/02/19 07:08:27;;;;;;;;;;;;;;;18.79;59.24;102089.63;7387788;19;1727;-41
2024/02/19 07:10:56;;;;;;;;;;;;;;;18.65;59.47;102093.16;7386392;19;1819;-41
2024/02/19 07:13:24;;;;;;;;;;;;;;;18.49;60.01;102087.09;7386855;19;1907;-41
2024/02/19 07:15:52;;;;;;;;;;;;;;;18.45;60.09;102090.94;7388309;19;1636;-41
2024/02/19 07:18:20;;;;;;;;;;;;;;;18.65;59.80;102093.16;7385546;19;1252;-41
2024/02/19 07:20:49;;;;;;;;;;;;;;;18.92;58.89;102076.28;7382907;19;2431;-40
2024/02/19 07:23:20;;;;;;;;;;;;;;;18.74;59.51;102085.47;7385785;19;1375;-41
2024/02/19 07:25:48;;;;;;;;;;;;;;;18.55;59.84;102078.66;7387137;19;1136;-41
2024/02/19 07:28:16;;;;;;;;;;;;;;;18.44;60.12;102079.38;7388266;19;1568;-41
2024/02/19 07:30:45;;;;;;;;;;;;;;;18.59;59.84;102080.19;7386106;19;1506;-42
2024/02/19 07:33:13;;;;;;;;;;;;;;;18.78;59.46;102081.63;7385582;19;1875;-41
2024/02/19 07:35:41;;;;;;;;;;;;;;;18.81;59.15;102081.47;7387258;19;1719;-41
2024/02/19 07:38:10;;;;;;;;;;;;;;;18.62;59.88;102080.00;7387301;19;1234;-41
2024/02/19 07:40:41;;;;;;;;;;;;;;;18.40;60.26;102053.75;7387847;19;1398;-41
2024/02/19 07:43:09;;;;;;;;;;;;;;;18.43;60.14;102077.66;7387330;19;1278;-42
2024/02/19 07:45:37;;;;;;;;;;;;;;;18.64;59.89;102077.19;7389146;19;938;-41
2024/02/19 07:48:07;;;;;;;;;;;;;;;18.82;59.46;102051.03;7388116;19;1727;-40
2024/02/19 07:50:35;;;;;;;;;;;;;;;18.64;60.03;102067.34;7387512;19;1502;-42
2024/02/19 07:53:03;;;;;;;;;;;;;;;18.44;60.20;102075.81;7385223;19;1853;-41
2024/02/19 07:55:32;;;;;;;;;;;;;;;18.27;60.94;102077.78;7386797;19;1794;-41
2024/02/19 07:58:04;;;;;;;;;;;;;;;17.98;54.30;102079.63;7385353;19;1386;-41
2024/02/19 08:00:32;;;;;;;;;;;;;;;17.59;55.07;102074.94;7384679;19;1355;-41
2024/02/19 08:03:01;;;;;;;;;;;;;;;17.41;53.32;102072.44;7384813;19;1303;-42
2024/02/19 08:05:29;;;;;;;;;;;;;;;17.38;52.04;102077.09;7385704;19;1430;-41
2024/02/19 08:07:57;;;;;;;;;;;;;;;17.48;51.30;102073.75;7386081;19;1524;-41
2024/02/19 08:10:26;;;;;;;;;;;;;;;17.91;50.14;102075.63;7386382;19;1505;-41
2024/02/19 08:12:54;;;;;;;;;;;;;;;18.47;49.43;102057.72;7384859;19;1885;-42
2024/02/19 08:15:25;;;;;;;;;;;;;;;18.85;49.22;102061.56;7386410;19;1374;-42
2024/02/19 08:17:53;;;;;;;;;;;;;;;18.99;49.73;102052.56;7387176;19;1455;-41
2024/02/19 08:20:22;;;;;;;;;;;;;;;19.12;49.81;102064.19;7385818;19;2022;-42
2024/02/19 08:22:51;;;;;;;;;;;;;;;19.17;50.22;102069.22;7384139;19;1438;-40
2024/02/19 08:25:20;;;;;;;;;;;;;;;19.24;50.67;102067.88;7383985;19;1592;-41
2024/02/19 08:27:48;;;;;;;;;;;;;;;19.38;50.89;102072.28;7386120;19;1795;-39
2024/02/19 08:30:17;;;;;;;;;;;;;;;19.36;50.98;102053.59;7386006;19;1720;-41
2024/02/19 08:32:48;;;;;;;;;;;;;;;19.42;51.53;102066.59;7385200;19;1857;-42
2024/02/19 08:35:16;;;;;;;;;;;;;;;19.44;51.50;102061.97;7386316;19;1152;-41
2024/02/19 08:37:45;;;;;;;;;;;;;;;19.55;51.86;102066.56;7386578;19;1604;-42
2024/02/19 08:40:13;;;;;;;;;;;;;;;19.58;51.99;102050.28;7386182;19;1727;-41
2024/02/19 08:42:41;;;;;;;;;;;;;;;19.59;51.89;102062.69;7385571;19;1426;-41
2024/02/19 08:45:10;;;;;;;;;;;;;;;19.54;52.48;102064.03;7385981;19;1176;-41
2024/02/19 08:47:39;;;;;;;;;;;;;;;19.62;52.41;102050.91;7384188;19;1513;-41
2024/02/19 08:50:10;;;;;;;;;;;;;;;19.59;52.52;102035.03;7387625;19;1729;-40
2024/02/19 08:55:19;;;;;;;;;;;;;;;19.63;52.75;102033.84;7379423;19;1495;-41
2024/02/19 08:57:48;;;;;;;;;;;;;;;19.68;52.96;102039.75;7390520;19;1560;-41
2024/02/19 10:10:06;;;;;;;;;;;;;;;19.00;54.62;101990.81;7390371;19;1560;-35
2024/02/19 10:12:35;;;;;;;;;;;;;;;19.26;53.51;101990.84;7385574;19;1843;-36
2024/02/19 10:15:03;;;;;;;;;;;;;;;19.05;54.05;102002.06;7393422;19;1123;-35
2024/02/19 10:17:31;;;;;;;;;;;;;;;18.76;57.16;101993.34;7389837;19;1842;-35
2024/02/19 10:20:05;;;;;;;;;;;;;;;18.55;58.62;101990.25;7392370;19;1474;-35
2024/02/19 10:22:33;;;;;;;;;;;;;;;18.80;58.30;101978.78;7393811;19;993;-35
2024/02/19 10:25:03;;;;;;;;;;;;;;;19.28;57.84;101968.31;7392146;19;1921;-36
2024/02/19 10:27:34;;;;;;;;;;;;;;;19.16;58.37;101946.84;7390027;19;1774;-36
2024/02/19 10:30:04;;;;;;;;;;;;;;;18.84;59.34;101953.50;7392380;19;1703;-36
2024/02/19 10:32:33;;;;;;;;;;;;;;;18.61;59.25;101962.22;7391589;19;1846;-35
2024/02/19 10:35:01;;;;;;;;;;;;;;;18.46;59.28;101962.28;7392153;19;1115;-35
2024/02/19 10:37:30;;;;;;;;;;;;;;;18.73;57.35;101955.16;7392344;19;1509;-35
2024/02/19 10:40:02;;;;;;;;;;;;;;;18.91;56.79;101943.19;7389681;19;1489;-35
2024/02/19 10:42:31;;;;;;;;;;;;;;;18.77;57.07;101940.59;7392054;19;1861;-35
2024/02/19 10:45:02;;;;;;;;;;;;;;;18.59;57.70;101938.19;7390883;19;1506;-35
2024/02/19 10:47:31;;;;;;;;;;;;;;;18.28;57.95;101913.50;7391585;19;1421;-35
2024/02/19 10:50:01;;;;;;;;;;;;;;;18.51;58.13;101947.72;7390780;19;1658;-35
2024/02/19 10:52:31;;;;;;;;;;;;;;;18.76;58.17;101929.03;7388846;19;1846;-35
2024/02/19 10:54:59;;;;;;;;;;;;;;;18.82;58.31;101922.38;7389868;19;1676;-35
2024/02/19 10:57:30;;;;;;;;;;;;;;;18.61;59.07;101912.16;7389710;19;1787;-35
2024/02/19 11:00:12;;;;;;;;;;;;;;;18.49;59.27;101921.03;7390930;19;1386;-35
2024/02/19 11:02:40;;;;;;;;;;;;;;;18.34;59.50;101909.53;7391328;19;1406;-35
2024/02/19 11:05:10;;;;;;;;;;;;;;;18.62;58.99;101921.94;7390430;19;1304;-35
2024/02/19 11:07:39;;;;;;;;;;;;;;;18.79;59.12;101910.06;7390504;19;1656;-35
2024/02/19 11:10:08;;;;;;;;;;;;;;;18.90;59.02;101898.63;7390373;19;1843;-35
2024/02/19 11:12:38;;;;;;;;;;;;;;;18.65;59.80;101894.06;7390042;19;1875;-35
2024/02/19 11:15:18;;;;;;;;;;;;;;;18.51;59.82;101895.00;7391093;19;975;-35
2024/02/19 11:17:48;;;;;;;;;;;;;;;18.32;60.36;101898.06;7391777;19;1067;-35
2024/02/19 11:20:25;;;;;;;;;;;;;;;18.62;59.88;101892.47;7391393;19;1584;-35
2024/02/19 11:22:58;;;;;;;;;;;;;;;18.81;59.91;101888.53;7389912;19;1579;-35
2024/02/19 11:25:27;;;;;;;;;;;;;;;18.68;59.86;101880.44;7389741;19;1830;-35
2024/02/19 11:27:55;;;;;;;;;;;;;;;18.48;60.41;101877.31;7389239;19;1870;-36
2024/02/19 11:30:27;;;;;;;;;;;;;;;18.38;60.57;101881.59;7390508;19;1732;-36
2024/02/19 11:33:02;;;;;;;;;;;;;;;18.58;60.12;101861.47;7386932;19;2413;-35
2024/02/19 11:35:30;;;;;;;;;;;;;;;18.86;59.81;101870.28;7389418;19;1712;-35
2024/02/19 11:37:59;;;;;;;;;;;;;;;18.88;59.58;101861.19;7389634;19;1573;-35
2024/02/19 11:40:31;;;;;;;;;;;;;;;18.62;60.29;101854.94;7391075;19;958;-35
2024/02/19 11:43:00;;;;;;;;;;;;;;;18.49;60.59;101846.03;7391485;19;1088;-35
2024/02/19 11:45:32;;;;;;;;;;;;;;;18.36;60.79;101859.41;7389189;19;1842;-35
2024/02/19 11:48:01;;;;;;;;;;;;;;;18.65;60.15;101840.47;7389458;19;1882;-35
2024/02/19 11:50:31;;;;;;;;;;;;;;;18.88;59.68;101838.91;7388551;19;1596;-35
2024/02/19 11:53:00;;;;;;;;;;;;;;;18.79;59.80;101842.19;7389214;19;1850;-36
2024/02/19 11:55:29;;;;;;;;;;;;;;;18.56;60.38;101828.59;7388389;19;1813;-36
2024/02/19 11:57:59;;;;;;;;;;;;;;;18.49;60.30;101838.00;7387798;19;1731;-35
2024/02/19 12:00:29;;;;;;;;;;;;;;;18.63;60.07;101832.53;7386428;19;2431;-35
2024/02/19 12:03:02;;;;;;;;;;;;;;;18.97;59.43;101832.00;7387843;19;1730;-35
2024/02/19 12:05:30;;;;;;;;;;;;;;;18.97;59.40;101819.47;7387743;19;1735;-35
2024/02/19 12:07:59;;;;;;;;;;;;;;;18.75;59.77;101811.22;7389299;19;1680;-35
2024/02/19 12:10:27;;;;;;;;;;;;;;;18.58;59.99;101813.25;7388120;19;1752;-35
2024/02/19 12:12:58;;;;;;;;;;;;;;;18.64;59.93;101817.31;7386555;19;1857;-35
2024/02/19 12:15:26;;;;;;;;;;;;;;;19.01;59.17;101802.19;7387981;19;1403;-35
2024/02/19 12:17:54;;;;;;;;;;;;;;;19.11;59.00;101804.22;7389328;19;1806;-35
2024/02/19 12:20:25;;;;;;;;;;;;;;;18.88;59.39;101802.22;7389487;19;1009;-35
2024/02/19 12:22:53;;;;;;;;;;;;;;;18.69;59.69;101801.78;7388763;19;1560;-35
2024/02/19 12:25:24;;;;;;;;;;;;;;;18.57;60.23;101790.09;7392057;19;1920;-35
2024/02/19 12:27:52;;;;;;;;;;;;;;;18.82;59.69;101802.66;7394837;19;1921;-35
2024/02/19 12:30:20;;;;;;;;;;;;;;;19.15;58.68;101778.91;7395642;19;1658;-35
2024/02/19 12:32:49;;;;;;;;;;;;;;;18.87;59.43;101794.28;7394691;19;2542;-35
2024/02/19 12:35:19;;;;;;;;;;;;;;;18.64;59.65;101786.03;7393517;19;1887;-35
2024/02/19 12:37:50;;;;;;;;;;;;;;;18.43;60.23;101785.72;7396784;19;1842;-35
2024/02/19 12:40:18;;;;;;;;;;;;;;;18.59;59.90;101780.13;7396434;19;1869;-35
2024/02/19 12:42:47;;;;;;;;;;;;;;;18.95;59.46;101788.38;7392138;19;1923;-35
2024/02/19 12:45:17;;;;;;;;;;;;;;;18.85;59.27;101782.81;7394946;19;1643;-35
2024/02/19 12:47:45;;;;;;;;;;;;;;;18.62;59.86;101782.63;7396323;19;1480;-35
2024/02/19 12:50:15;;;;;;;;;;;;;;;18.49;60.23;101793.31;7395813;19;1752;-35
2024/02/19 12:52:43;;;;;;;;;;;;;;;18.58;60.10;101775.75;7395463;19;1921;-35
2024/02/19 12:55:14;;;;;;;;;;;;;;;18.92;59.42;101777.88;7391688;19;1844;-35
2024/02/19 12:57:43;;;;;;;;;;;;;;;18.97;58.90;101759.66;7395653;19;1347;-35
2024/02/19 13:00:12;;;;;;;;;;;;;;;18.71;59.36;101774.88;7394665;19;1723;-35
2024/02/19 13:02:40;;;;;;;;;;;;;;;18.51;60.03;101765.59;7394718;19;1791;-35
2024/02/19 13:05:09;;;;;;;;;;;;;;;18.45;60.10;101769.53;7393963;19;1355;-35
2024/02/19 13:07:40;;;;;;;;;;;;;;;18.80;59.47;101763.53;7393455;19;1728;-35
2024/02/19 13:10:09;;;;;;;;;;;;;;;19.02;58.78;101758.34;7392043;19;1747;-35
2024/02/19 13:12:40;;;;;;;;;;;;;;;18.81;59.36;101757.22;7392834;19;2369;-35
2024/02/19 13:15:09;;;;;;;;;;;;;;;18.59;59.68;101749.81;7393102;19;1869;-35
2024/02/19 13:17:37;;;;;;;;;;;;;;;18.45;60.28;101758.81;7393812;19;1546;-35
2024/02/19 13:20:06;;;;;;;;;;;;;;;18.77;59.68;101753.00;7393697;19;1664;-35
2024/02/19 13:22:34;;;;;;;;;;;;;;;19.13;58.70;101748.66;7395293;19;1474;-36
2024/02/19 13:25:03;;;;;;;;;;;;;;;18.95;58.86;101740.97;7393991;19;1716;-35
2024/02/19 13:27:31;;;;;;;;;;;;;;;18.73;59.43;101738.13;7393845;19;1113;-35
2024/02/19 13:30:02;;;;;;;;;;;;;;;18.55;59.82;101734.94;7391744;19;1862;-35
2024/02/19 13:32:31;;;;;;;;;;;;;;;18.63;59.80;101740.59;7394047;19;1679;-35
2024/02/19 13:34:59;;;;;;;;;;;;;;;19.01;58.85;101724.44;7391508;19;1884;-36
2024/02/19 13:37:27;;;;;;;;;;;;;;;19.02;58.62;101720.81;7393384;19;1113;-35
2024/02/19 13:39:55;;;;;;;;;;;;;;;18.82;59.12;101737.47;7394600;19;987;-35
2024/02/19 13:42:24;;;;;;;;;;;;;;;18.60;59.66;101725.59;7391906;19;1041;-36
2024/02/19 13:44:53;;;;;;;;;;;;;;;18.54;60.09;101731.38;7391013;19;1505;-35
2024/02/19 13:47:23;;;;;;;;;;;;;;;18.86;59.33;101726.44;7392361;19;1505;-35
2024/02/19 13:49:52;;;;;;;;;;;;;;;19.07;58.70;101713.28;7393383;19;1220;-35
2024/02/19 13:52:20;;;;;;;;;;;;;;;18.77;59.47;101727.06;7393729;19;1683;-36
2024/02/19 13:54:49;;;;;;;;;;;;;;;18.53;60.01;101718.97;7391154;19;1878;-35
2024/02/19 13:57:17;;;;;;;;;;;;;;;18.42;60.25;101722.41;7392414;19;1758;-35
2024/02/19 13:59:45;;;;;;;;;;;;;;;18.68;59.50;101715.19;7391806;19;1485;-35
2024/02/19 14:02:14;;;;;;;;;;;;;;;18.92;59.18;101725.16;7391140;19;1411;-35
2024/02/19 14:04:45;;;;;;;;;;;;;;;18.90;58.96;101712.81;7393553;19;1601;-35
2024/02/19 14:07:14;;;;;;;;;;;;;;;18.65;59.52;101712.72;7393124;19;1703;-35
2024/02/19 14:09:43;;;;;;;;;;;;;;;18.44;59.90;101722.28;7392323;19;1286;-35